Time;durP1;ratioP1;P1;durP2;ratioP2;P2;SDS_P1;SDS_P2;PMS_P1;PMS_P2;Temp;Humidity;BMP_temperature;BMP_pressure;BME280_temperature;BME280_humidity;BME280_pressure;Samples;Min_cycle;Max_cycle;Signal;HPM_P1;HPM_P2
2022/04/22 00:00:26;;;;;;;16.13;6.57;;;;;;;;;;5072492;28;20043;-81
2022/04/22 00:03:11;;;;;;;13.27;6.35;;;;;;;;;;5072984;28;20081;-79
2022/04/22 00:05:55;;;;;;;16.38;7.57;;;;;;;;;;5072517;28;20086;-79
2022/04/22 00:08:40;;;;;;;18.55;7.43;;;;;;;;;;5072140;28;20047;-79
2022/04/22 00:11:31;;;;;;;11.38;6.40;;;;;;;;;;5072770;28;20179;-79
2022/04/22 00:14:16;;;;;;;12.60;6.75;;;;;;;;;;5071778;28;20086;-79
2022/04/22 00:17:01;;;;;;;11.23;6.78;;;;;;;;;;5071418;28;20040;-79
2022/04/22 00:19:45;;;;;;;17.30;7.30;;;;;;;;;;5072108;28;20112;-79
2022/04/22 00:22:30;;;;;;;12.82;6.93;;;;;;;;;;5070914;28;20039;-82
2022/04/22 00:25:15;;;;;;;12.93;6.55;;;;;;;;;;5071319;28;20043;-80
2022/04/22 00:27:59;;;;;;;14.85;7.53;;;;;;;;;;5071056;28;20560;-79
2022/04/22 00:30:44;;;;;;;14.88;7.63;;;;;;;;;;5070763;28;20138;-80
2022/04/22 00:33:29;;;;;;;13.93;6.90;;;;;;;;;;5070799;28;20040;-81
2022/04/22 00:36:13;;;;;;;13.55;8.25;;;;;;;;;;5072285;28;20098;-80
2022/04/22 00:38:58;;;;;;;14.82;8.50;;;;;;;;;;5072269;28;20491;-79
2022/04/22 00:41:43;;;;;;;16.98;7.53;;;;;;;;;;5071644;28;20044;-80
2022/04/22 00:44:27;;;;;;;10.35;6.53;;;;;;;;;;5072189;28;20051;-79
2022/04/22 00:47:12;;;;;;;15.27;7.85;;;;;;;;;;5070612;28;20385;-80
2022/04/22 00:49:57;;;;;;;16.00;8.40;;;;;;;;;;5069878;28;20056;-79
2022/04/22 00:52:42;;;;;;;15.75;7.40;;;;;;;;;;5070371;28;20071;-79
2022/04/22 00:55:28;;;;;;;16.95;8.82;;;9.70;99.90;;;;;;5071100;28;20074;-80
2022/04/22 00:58:13;;;;;;;14.88;7.65;;;;;;;;;;5072083;28;20508;-80
2022/04/22 01:00:58;;;;;;;16.58;7.97;;;;;;;;;;5084824;28;20580;-80
2022/04/22 01:09:51;;;;;;;14.57;7.15;;;;;;;;;;5071353;28;20514;-80
2022/04/22 01:12:35;;;;;;;17.77;8.30;;;;;;;;;;5070729;28;20063;-82
2022/04/22 01:15:21;;;;;;;15.00;7.15;;;;;;;;;;5071764;28;20043;-80
2022/04/22 01:18:06;;;;;;;17.02;7.90;;;;;;;;;;5071051;28;20047;-80
2022/04/22 01:20:51;;;;;;;18.23;7.75;;;;;;;;;;5071701;28;20124;-80
2022/04/22 01:23:36;;;;;;;16.85;7.88;;;;;;;;;;5057696;28;20047;-81
2022/04/22 01:26:21;;;;;;;17.08;8.55;;;;;;;;;;5070896;28;20044;-79
2022/04/22 01:29:06;;;;;;;16.10;8.02;;;9.30;99.90;;;;;;5071758;28;20404;-80
2022/04/22 01:31:51;;;;;;;15.95;7.97;;;;;;;;;;5071243;28;20047;-80
2022/04/22 01:34:35;;;;;;;20.40;7.80;;;;;;;;;;5071044;28;20106;-80
2022/04/22 01:37:20;;;;;;;18.13;8.55;;;;;;;;;;5070529;28;20392;-79
2022/04/22 01:40:05;;;;;;;19.17;8.13;;;8.80;99.90;;;;;;5071417;28;20081;-80
2022/04/22 01:42:49;;;;;;;16.75;9.20;;;;;;;;;;5070084;28;20047;-80
2022/04/22 01:45:34;;;;;;;20.58;8.93;;;;;;;;;;5073645;28;20492;-80
2022/04/22 01:48:20;;;;;;;13.50;7.80;;;9.00;99.90;;;;;;5074543;28;20139;-79
2022/04/22 01:51:04;;;;;;;18.42;9.05;;;;;;;;;;5075083;28;20534;-79
2022/04/22 01:53:49;;;;;;;15.30;7.93;;;;;;;;;;5074962;28;20117;-80
2022/04/22 01:56:34;;;;;;;16.73;8.68;;;;;;;;;;5075653;28;20392;-80
2022/04/22 01:59:18;;;;;;;13.60;7.80;;;;;;;;;;5074262;28;20043;-80
2022/04/22 02:02:03;;;;;;;13.57;7.43;;;;;;;;;;5073638;28;20064;-80
2022/04/22 02:04:47;;;;;;;12.93;7.88;;;;;;;;;;5074737;28;20051;-80
2022/04/22 02:07:33;;;;;;;15.32;8.68;;;6.90;99.90;;;;;;5075136;28;20101;-79
2022/04/22 02:10:18;;;;;;;15.00;7.95;;;;;;;;;;5074184;28;20079;-79
2022/04/22 02:13:03;;;;;;;16.35;8.32;;;;;;;;;;5073394;28;20119;-80
2022/04/22 02:15:47;;;;;;;14.38;7.88;;;;;;;;;;5074468;28;20043;-80
2022/04/22 02:18:36;;;;;;;14.75;8.32;;;;;;;;;;5073964;28;20506;-79
2022/04/22 02:21:21;;;;;;;16.67;7.65;;;;;;;;;;5074972;28;20103;-79
2022/04/22 02:24:05;;;;;;;13.00;6.97;;;8.50;99.90;;;;;;5073168;28;20634;-80
2022/04/22 02:29:53;;;;;;;13.18;7.28;;;;;;;;;;5074047;28;20087;-79
2022/04/22 02:32:38;;;;;;;17.77;7.93;;;;;;;;;;5073648;28;20166;-80
2022/04/22 02:35:23;;;;;;;12.65;7.22;;;;;;;;;;5073652;28;20169;-80
2022/04/22 02:38:07;;;;;;;14.23;6.85;;;;;;;;;;5074666;28;20051;-85
2022/04/22 02:46:59;;;;;;;13.35;6.85;;;;;;;;;;5074760;28;20048;-86
2022/04/22 02:49:44;;;;;;;12.43;6.72;;;;;;;;;;5074109;28;20044;-84
2022/04/22 02:52:29;;;;;;;13.43;6.50;;;;;;;;;;5075255;28;20040;-85
2022/04/22 02:55:13;;;;;;;18.05;8.23;;;;;;;;;;5073829;28;20043;-85
2022/04/22 02:57:58;;;;;;;12.88;7.10;;;;;;;;;;5073525;28;20055;-85
2022/04/22 03:00:42;;;;;;;10.55;6.88;;;;;;;;;;5088340;28;20503;-85
2022/04/22 03:03:27;;;;;;;9.63;5.78;;;;;;;;;;5073747;28;20500;-84
2022/04/22 03:06:12;;;;;;;8.82;5.15;;;;;;;;;;5073450;28;20040;-85
2022/04/22 03:08:57;;;;;;;10.57;5.63;;;;;;;;;;5073253;28;20043;-85
2022/04/22 03:11:41;;;;;;;12.88;5.32;;;;;;;;;;5074789;28;20098;-85
2022/04/22 03:14:26;;;;;;;11.88;6.00;;;;;;;;;;5073657;28;20039;-85
2022/04/22 03:17:11;;;;;;;10.55;6.15;;;;;;;;;;5074193;28;20043;-85
2022/04/22 03:19:56;;;;;;;8.93;5.45;;;;;;;;;;5072986;28;20124;-85
2022/04/22 03:22:41;;;;;;;7.80;5.00;;;;;;;;;;5073618;28;20094;-85
2022/04/22 03:25:26;;;;;;;7.78;5.32;;;;;;;;;;5073393;28;20058;-85
2022/04/22 03:28:10;;;;;;;12.38;5.10;;;;;;;;;;5072872;28;20039;-85
2022/04/22 03:30:55;;;;;;;10.75;5.80;;;;;;;;;;5072900;28;20106;-89
2022/04/22 03:33:40;;;;;;;12.65;6.63;;;;;;;;;;5073207;28;20074;-85
2022/04/22 03:36:24;;;;;;;10.20;5.47;;;;;;;;;;5073262;28;20043;-85
2022/04/22 03:39:09;;;;;;;10.00;4.97;;;;;;;;;;5072762;28;20059;-85
2022/04/22 03:41:54;;;;;;;9.63;5.03;;;;;;;;;;5074308;28;20421;-85
2022/04/22 03:44:39;;;;;;;14.95;6.07;;;;;;;;;;5074230;28;20058;-85
2022/04/22 03:47:23;;;;;;;10.20;5.25;;;;;;;;;;5074071;28;20039;-85
2022/04/22 03:50:08;;;;;;;10.98;5.35;;;;;;;;;;5072557;28;20043;-86
2022/04/22 03:52:53;;;;;;;10.07;4.82;;;;;;;;;;5072962;28;20166;-86
2022/04/22 03:55:43;;;;;;;10.63;5.10;;;7.90;99.90;;;;;;5087166;28;20043;-86
2022/04/22 03:58:27;;;;;;;8.82;5.40;;;;;;;;;;5072753;28;20050;-85
2022/04/22 04:01:11;;;;;;;7.35;4.80;;;;;;;;;;5072429;28;20094;-85
2022/04/22 04:03:56;;;;;;;10.60;5.18;;;;;;;;;;5073634;28;20099;-85
2022/04/22 04:06:40;;;;;;;9.15;5.63;;;;;;;;;;5072337;28;20047;-85
2022/04/22 04:18:37;;;;;;;11.80;5.13;;;7.50;99.90;;;;;;5084215;28;20051;-86
2022/04/22 04:24:25;;;;;;;9.27;5.20;;;;;;;;;;5072999;28;20507;-86
2022/04/22 04:27:10;;;;;;;11.23;5.15;;;;;;;;;;5071922;28;20079;-84
2022/04/22 04:29:54;;;;;;;10.25;5.93;;;;;;;;;;5072087;28;20094;-85
2022/04/22 04:32:39;;;;;;;9.68;4.50;;;;;;;;;;5073471;28;20522;-85
2022/04/22 04:35:24;;;;;;;11.55;5.40;;;;;;;;;;5072806;28;20043;-85
2022/04/22 04:38:08;;;;;;;9.45;4.60;;;;;;;;;;5071771;28;20047;-85
2022/04/22 04:40:53;;;;;;;10.20;4.78;;;;;;;;;;5072259;28;20071;-86
2022/04/22 04:43:40;;;;;;;12.85;4.70;;;;;;;;;;5071883;28;20070;-86
2022/04/22 04:46:25;;;;;;;7.38;4.45;;;;;;;;;;5071718;28;20453;-85
2022/04/22 04:49:09;;;;;;;9.70;4.72;;;;;;;;;;5071497;28;20404;-86
2022/04/22 04:51:54;;;;;;;8.00;4.88;;;;;;;;;;5086345;28;20129;-85
2022/04/22 04:54:39;;;;;;;9.93;4.82;;;;;;;;;;5073031;28;20071;-87
2022/04/22 04:57:24;;;;;;;6.35;4.38;;;;;;;;;;5085728;28;20474;-85
2022/04/22 05:00:10;;;;;;;9.20;5.18;;;8.10;99.90;;;;;;5071540;28;20035;-85
2022/04/22 05:02:55;;;;;;;8.93;4.88;;;;;;;;;;5072969;28;20039;-85
2022/04/22 05:05:40;;;;;;;7.72;5.82;;;;;;;;;;5073050;28;20086;-85
2022/04/22 05:08:26;;;;;;;7.20;4.45;;;;;;;;;;5071214;28;20125;-84
2022/04/22 05:11:11;;;;;;;9.18;5.68;;;;;;;;;;5071394;28;20039;-86
2022/04/22 05:13:58;;;;;;;10.77;5.10;;;;;;;;;;5072758;28;20067;-85
2022/04/22 05:16:43;;;;;;;11.23;5.10;;;;;;;;;;5071649;28;20071;-86
2022/04/22 05:19:27;;;;;;;8.40;4.25;;;;;;;;;;5072450;28;20106;-84
2022/04/22 05:22:12;;;;;;;8.02;4.97;;;;;;;;;;5089764;28;20071;-86
2022/04/22 05:24:57;;;;;;;7.80;4.45;;;;;;;;;;5076772;28;20066;-85
2022/04/22 05:27:42;;;;;;;8.30;4.75;;;7.60;99.90;;;;;;5076600;28;20044;-86
2022/04/22 05:33:30;;;;;;;10.25;4.88;;;;;;;;;;5076204;28;20094;-85
2022/04/22 05:36:14;;;;;;;11.23;5.20;;;;;;;;;;5076162;28;20079;-85
2022/04/22 05:38:59;;;;;;;10.27;4.47;;;;;;;;;;5075388;28;20075;-85
2022/04/22 05:41:43;;;;;;;6.45;4.40;;;;;;;;;;5075339;28;20047;-85
2022/04/22 05:44:28;;;;;;;9.80;4.75;;;7.80;99.90;;;;;;5074981;28;20413;-83
2022/04/22 05:47:13;;;;;;;10.88;5.05;;;;;;;;;;5075203;28;20036;-90
2022/04/22 05:49:58;;;;;;;10.32;4.85;;;;;;;;;;5075146;28;20051;-84
2022/04/22 05:52:43;;;;;;;9.13;4.82;;;;;;;;;;5075156;28;20043;-84
2022/04/22 05:55:28;;;;;;;7.18;4.47;;;8.00;99.90;;;;;;5088898;28;20119;-86
2022/04/22 05:58:13;;;;;;;10.20;4.60;;;;;;;;;;5076095;28;20047;-89
2022/04/22 06:00:57;;;;;;;7.93;4.72;;;;;;;;;;5075576;28;20039;-85
2022/04/22 06:03:42;;;;;;;10.88;5.57;;;;;;;;;;5075006;28;20550;-86
2022/04/22 06:06:26;;;;;;;8.38;5.03;;;;;;;;;;5074527;28;20059;-85
2022/04/22 06:12:17;;;;;;;9.77;5.03;;;;;;;;;;5067318;28;20071;-90
2022/04/22 06:15:04;;;;;;;9.02;4.80;;;;;;;;;;5088939;28;20094;-84
2022/04/22 06:17:49;;;;;;;9.50;4.43;;;;;;;;;;5074649;28;20487;-86
2022/04/22 06:20:34;;;;;;;10.23;4.82;;;;;;;;;;5074272;28;20051;-84
2022/04/22 06:23:18;;;;;;;9.80;4.88;;;;;;;;;;5074302;28;20039;-86
2022/04/22 06:26:03;;;;;;;8.00;4.20;;;;;;;;;;5074649;28;20039;-82
2022/04/22 06:28:48;;;;;;;9.68;4.50;;;;;;;;;;5074481;28;20052;-83
2022/04/22 06:31:32;;;;;;;8.77;4.00;;;9.70;99.90;;;;;;5073383;28;20105;-82
2022/04/22 06:34:17;;;;;;;11.40;4.68;;;;;;;;;;5075278;28;20070;-83
2022/04/22 06:37:02;;;;;;;8.50;3.70;;;;;;;;;;5074096;28;20040;-84
2022/04/22 06:45:55;;;;;;;8.35;3.60;;;9.50;99.90;;;;;;5075102;28;20202;-87
2022/04/22 06:48:40;;;;;;;7.00;3.70;;;;;;;;;;5073790;28;20500;-86
2022/04/22 06:51:25;;;;;;;8.77;3.55;;;;;;;;;;5073728;28;20035;-85
2022/04/22 06:54:10;;;;;;;6.47;3.47;;;;;;;;;;5074125;28;20094;-86
2022/04/22 06:56:55;;;;;;;5.72;3.22;;;;;;;;;;5074434;28;20118;-87
2022/04/22 06:59:40;;;;;;;11.40;3.22;;;;;;;;;;5074911;28;20396;-87
2022/04/22 07:02:25;;;;;;;7.70;3.75;;;9.80;99.90;;;;;;5074011;28;20443;-85
2022/04/22 07:05:10;;;;;;;5.80;2.50;;;9.80;99.90;;;;;;5074093;28;20404;-85
2022/04/22 07:07:54;;;;;;;6.95;3.47;;;;;;;;;;5073883;28;20392;-83
2022/04/22 07:10:41;;;;;;;6.85;3.25;;;10.30;99.90;;;;;;5073393;28;20039;-84
2022/04/22 07:13:26;;;;;;;6.97;3.20;;;;;;;;;;5073545;28;20515;-87
2022/04/22 07:16:14;;;;;;;8.32;3.15;;;11.30;99.90;;;;;;5073592;28;20048;-83
2022/04/22 07:18:59;;;;;;;6.10;2.80;;;;;;;;;;5073344;28;20063;-83
2022/04/22 07:21:44;;;;;;;9.32;3.70;;;;;;;;;;5073011;28;20044;-85
2022/04/22 07:24:29;;;;;;;5.35;2.63;;;;;;;;;;5072949;28;20484;-86
2022/04/22 07:27:16;;;;;;;4.63;2.70;;;13.60;99.90;;;;;;5073442;28;20521;-84
2022/04/22 07:30:01;;;;;;;5.75;2.78;;;;;;;;;;5073239;28;20090;-84
2022/04/22 07:32:46;;;;;;;4.47;3.22;;;;;;;;;;5072936;28;20123;-84
2022/04/22 07:35:30;;;;;;;8.00;3.33;;;;;;;;;;5072941;28;20090;-85
2022/04/22 07:38:15;;;;;;;5.20;2.70;;;12.90;99.90;;;;;;5074553;28;20087;-85
2022/04/22 07:41:00;;;;;;;5.68;2.97;;;;;;;;;;5074232;28;20066;-85
2022/04/22 07:46:59;;;;;;;4.78;2.50;;;12.70;99.90;;;;;;5084919;28;20040;-85
2022/04/22 07:49:44;;;;;;;4.43;2.78;;;;;;;;;;5085875;28;20051;-88
2022/04/22 07:52:29;;;;;;;5.47;2.60;;;;;;;;;;5073662;28;20090;-91
2022/04/22 07:55:14;;;;;;;5.32;2.67;;;12.60;99.90;;;;;;5073044;28;20039;-85
2022/04/22 07:57:59;;;;;;;8.55;2.95;;;;;;;;;;5072765;28;20081;-85
2022/04/22 08:00:47;;;;;;;6.60;2.55;;;;;;;;;;5072374;28;20047;-86
2022/04/22 08:03:32;;;;;;;9.45;3.63;;;;;;;;;;5072496;28;20036;-88
2022/04/22 08:06:16;;;;;;;6.60;2.80;;;;;;;;;;5072368;28;20044;-84
2022/04/22 08:09:04;;;;;;;9.82;3.10;;;12.70;99.90;;;;;;5072125;28;20051;-83
2022/04/22 08:11:48;;;;;;;5.05;2.47;;;;;;;;;;5072201;28;20060;-84
2022/04/22 08:14:33;;;;;;;5.50;2.63;;;;;;;;;;5072146;28;20044;-88
2022/04/22 08:17:18;;;;;;;7.72;2.70;;;;;;;;;;5072525;28;20075;-83
2022/04/22 08:20:03;;;;;;;7.40;2.60;;;;;;;;;;5072216;28;20043;-83
2022/04/22 08:22:48;;;;;;;5.88;2.67;;;;;;;;;;5072776;28;20039;-85
2022/04/22 08:25:33;;;;;;;6.68;2.45;;;;;;;;;;5072179;28;20127;-87
2022/04/22 08:28:17;;;;;;;4.30;2.58;;;13.70;99.90;;;;;;5073173;28;20127;-84
2022/04/22 08:31:02;;;;;;;6.40;2.70;;;13.90;99.90;;;;;;5071876;28;20049;-83
2022/04/22 08:33:47;;;;;;;5.85;2.65;;;14.00;99.90;;;;;;5072817;28;20055;-84
2022/04/22 08:36:32;;;;;;;8.93;3.90;;;14.10;99.80;;;;;;5058268;28;20044;-84
2022/04/22 08:39:17;;;;;;;6.32;2.42;;;14.60;99.90;;;;;;5073173;28;20122;-84
2022/04/22 08:42:02;;;;;;;6.78;2.90;;;;;;;;;;5071894;28;20047;-83
2022/04/22 08:44:47;;;;;;;6.10;2.38;;;;;;;;;;5071648;28;20454;-85
2022/04/22 08:50:37;;;;;;;5.60;2.70;;;14.40;99.90;;;;;;5083531;28;20173;-84
2022/04/22 08:53:28;;;;;;;4.80;2.47;;;14.80;99.90;;;;;;5071524;28;20086;-83
2022/04/22 08:56:13;;;;;;;5.93;2.30;;;14.90;99.90;;;;;;5072776;28;20039;-83
2022/04/22 08:58:58;;;;;;;7.25;2.55;;;15.50;99.90;;;;;;5071444;28;20056;-83
2022/04/22 09:01:42;;;;;;;7.50;2.42;;;;;;;;;;5071551;28;20075;-84
2022/04/22 09:04:27;;;;;;;5.18;2.78;;;15.90;99.90;;;;;;5071405;28;20043;-83
2022/04/22 09:07:18;;;;;;;5.97;2.63;;;16.20;99.90;;;;;;5057778;28;20040;-83
2022/04/22 09:10:03;;;;;;;4.35;2.65;;;;;;;;;;5071138;28;20492;-83
2022/04/22 09:12:55;;;;;;;6.22;2.72;;;16.20;99.90;;;;;;5071056;28;20063;-83
2022/04/22 09:15:40;;;;;;;7.07;2.20;;;;;;;;;;5071618;28;20400;-90
2022/04/22 09:18:26;;;;;;;7.45;2.55;;;16.00;91.30;;;;;;5086037;28;20048;-84
2022/04/22 09:21:17;;;;;;;6.45;2.58;;;16.30;99.90;;;;;;5085774;28;20055;-83
2022/04/22 09:24:14;;;;;;;5.35;2.80;;;;;;;;;;5072068;28;20655;-85
2022/04/22 09:27:03;;;;;;;6.63;2.53;;;;;;;;;;5072317;28;20078;-84
2022/04/22 09:29:53;;;;;;;4.78;2.50;;;;;;;;;;5071150;28;20101;-84
2022/04/22 09:32:41;;;;;;;5.15;2.47;;;17.40;87.90;;;;;;5071606;28;20557;-83
2022/04/22 09:35:28;;;;;;;4.72;2.22;;;;;;;;;;5071783;28;20059;-84
2022/04/22 09:44:29;;;;;;;6.70;2.33;;;16.70;85.20;;;;;;5083919;28;20070;-87
2022/04/22 09:47:14;;;;;;;8.85;2.28;;;;;;;;;;5071656;28;20093;-86
2022/04/22 09:50:00;;;;;;;4.55;2.10;;;;;;;;;;5071729;28;20095;-86
2022/04/22 09:52:46;;;;;;;3.92;2.35;;;;;;;;;;5086058;28;20074;-89
2022/04/22 09:55:35;;;;;;;5.60;2.42;;;17.50;83.30;;;;;;5071932;28;20079;-85
2022/04/22 09:58:29;;;;;;;6.15;2.92;;;;;;;;;;5071545;28;20040;-84
2022/04/22 10:01:14;;;;;;;9.20;2.80;;;;;;;;;;5071654;28;20054;-85
2022/04/22 10:04:01;;;;;;;3.92;2.40;;;;;;;;;;5071548;28;20061;-86
2022/04/22 10:06:46;;;;;;;5.13;2.35;;;;;;;;;;5075104;28;20081;-88
2022/04/22 10:09:35;;;;;;;5.47;2.72;;;17.00;82.40;;;;;;5075624;28;20047;-85
2022/04/22 10:12:22;;;;;;;5.70;2.67;;;;;;;;;;5075551;28;20051;-84
2022/04/22 10:15:10;;;;;;;6.75;2.40;;;;;;;;;;5076023;28;20035;-85
2022/04/22 10:17:55;;;;;;;4.75;2.78;;;;;;;;;;5075095;28;20522;-87
2022/04/22 10:20:43;;;;;;;6.57;3.42;;;;;;;;;;5076260;28;20036;-87
2022/04/22 10:23:30;;;;;;;8.43;3.10;;;17.20;78.90;;;;;;5074976;28;20040;-87
2022/04/22 10:26:15;;;;;;;7.80;2.67;;;;;;;;;;5089773;28;20495;-87
2022/04/22 10:29:00;;;;;;;8.07;3.58;;;;;;;;;;5076170;28;20063;-88
2022/04/22 10:31:44;;;;;;;6.13;2.83;;;;;;;;;;5075420;28;20095;-86
2022/04/22 10:34:40;;;;;;;5.05;2.78;;;17.20;79.90;;;;;;5074845;28;20078;-86
2022/04/22 10:37:26;;;;;;;5.35;3.15;;;17.30;79.80;;;;;;5075536;28;20050;-84
2022/04/22 10:40:18;;;;;;;5.20;2.58;;;;;;;;;;5074105;28;20117;-86
2022/04/22 10:43:03;;;;;;;4.35;2.85;;;;;;;;;;5074280;28;20155;-88
2022/04/22 10:49:16;;;;;;;4.90;3.03;;;17.80;78.20;;;;;;5075198;28;20478;-90
2022/04/22 10:52:14;;;;;;;4.95;2.97;;;18.00;78.30;;;;;;5073861;28;20491;-85
2022/04/22 10:54:59;;;;;;;6.22;3.15;;;;;;;;;;5073786;28;20039;-85
2022/04/22 10:57:44;;;;;;;6.13;3.15;;;;;;;;;;5074859;28;20052;-86
2022/04/22 11:00:29;;;;;;;8.07;3.53;;;;;;;;;;5074267;28;20058;-85
2022/04/22 11:03:19;;;;;;;5.88;3.20;;;;;;;;;;5074120;28;20052;-85
2022/04/22 11:06:07;;;;;;;5.82;2.90;;;;;;;;;;5074179;28;20078;-85
2022/04/22 11:09:02;;;;;;;6.28;2.88;;;;;;;;;;5074141;28;20512;-85
2022/04/22 11:11:46;;;;;;;5.53;3.03;;;18.80;93.70;;;;;;5074443;28;20035;-86
2022/04/22 11:14:44;;;;;;;4.63;3.13;;;18.20;73.10;;;;;;5074365;28;20093;-85
2022/04/22 11:17:33;;;;;;;7.68;3.25;;;;;;;;;;5073063;28;20525;-85
2022/04/22 11:20:18;;;;;;;7.55;3.20;;;18.20;72.40;;;;;;5073905;28;20086;-85
2022/04/22 11:23:05;;;;;;;8.98;3.30;;;;;;;;;;5073591;28;20039;-85
2022/04/22 11:25:51;;;;;;;5.32;3.10;;;;;;;;;;5074723;28;20392;-86
2022/04/22 11:28:38;;;;;;;6.28;3.30;;;18.50;73.40;;;;;;5073519;28;20083;-85
2022/04/22 11:31:28;;;;;;;5.78;2.72;;;18.70;72.10;;;;;;5087527;28;20063;-85
2022/04/22 11:34:18;;;;;;;4.25;2.90;;;18.60;90.20;;;;;;5074036;28;20036;-86
2022/04/22 11:37:16;;;;;;;6.25;3.00;;;19.00;92.20;;;;;;5072934;28;20500;-85
2022/04/22 11:40:01;;;;;;;5.95;3.25;;;;;;;;;;5086976;28;20063;-90
2022/04/22 11:42:46;;;;;;;8.73;3.03;;;;;;;;;;5073134;28;20082;-85
2022/04/22 11:45:30;;;;;;;6.28;3.28;;;;;;;;;;5074365;28;20035;-84
2022/04/22 11:48:21;;;;;;;6.43;3.15;;;19.20;69.20;;;;;;5087151;28;20103;-86
2022/04/22 11:51:06;;;;;;;7.32;2.97;;;;;;;;;;5087096;28;20035;-85
2022/04/22 11:53:52;;;;;;;7.85;3.35;;;19.00;83.80;;;;;;5073015;28;20400;-87
2022/04/22 11:56:36;;;;;;;7.22;3.03;;;18.70;83.60;;;;;;5073166;28;20162;-86
2022/04/22 11:59:22;;;;;;;7.45;3.70;;;18.80;68.40;;;;;;5073162;28;20044;-86
2022/04/22 12:05:34;;;;;;;12.35;3.38;;;19.10;68.50;;;;;;5084373;28;20046;-85
2022/04/22 12:08:19;;;;;;;4.22;3.10;;;19.20;82.20;;;;;;5072667;28;20055;-86
2022/04/22 12:11:03;;;;;;;6.80;2.90;;;;;;;;;;5072772;28;20043;-89
2022/04/22 12:13:49;;;;;;;5.22;2.75;;;19.10;78.90;;;;;;5073237;28;20044;-85
2022/04/22 12:16:33;;;;;;;6.40;3.70;;;19.30;70.40;;;;;;5072981;28;20044;-84
2022/04/22 12:19:18;;;;;;;8.38;3.60;;;;;;;;;;5072561;28;20512;-86
2022/04/22 12:22:04;;;;;;;5.45;3.40;;;;;;;;;;5073166;28;20078;-86
2022/04/22 12:25:10;;;;;;;7.60;3.75;;;19.60;79.20;;;;;;5086909;28;20123;-86
2022/04/22 12:28:26;;;;;;;5.38;3.22;;;19.30;78.40;;;;;;5072324;28;20507;-85
2022/04/22 12:31:21;;;;;;;9.95;3.92;;;19.30;77.50;;;;;;5077497;28;20054;-85
2022/04/22 12:34:11;;;;;;;12.27;3.67;;;19.60;66.90;;;;;;5086529;28;20098;-92
2022/04/22 12:36:56;;;;;;;6.85;3.75;;;19.60;66.50;;;;;;5072422;28;20086;-86
2022/04/22 12:39:43;;;;;;;6.68;3.60;;;19.50;68.00;;;;;;5073408;28;20047;-87
2022/04/22 12:42:27;;;;;;;6.78;3.53;;;19.60;76.80;;;;;;5086234;28;20043;-86
2022/04/22 13:01:52;;;;;;;9.27;4.25;;;;;;;;;;5027088;28;20059;-86
2022/04/22 13:04:58;;;;;;;10.18;4.28;;;19.80;66.50;;;;;;5072290;28;20098;-85
2022/04/22 13:07:45;;;;;;;10.65;4.43;;;19.90;65.80;;;;;;5071832;28;20039;-86
2022/04/22 13:10:29;;;;;;;9.60;4.22;;;19.60;76.50;;;;;;5071330;28;20047;-86
2022/04/22 13:13:16;;;;;;;6.88;4.47;;;19.50;77.40;;;;;;5071430;28;20393;-85
2022/04/22 13:16:00;;;;;;;9.73;4.47;;;19.10;78.10;;;;;;5085559;28;20085;-87
2022/04/22 13:18:44;;;;;;;9.38;4.57;;;19.00;78.10;;;;;;5071608;28;20085;-86
2022/04/22 13:21:29;;;;;;;7.35;4.20;;;;;;;;;;5071341;28;20083;-86
2022/04/22 13:24:13;;;;;;;9.45;4.88;;;;;;;;;;5072301;28;20093;-92
2022/04/22 13:26:58;;;;;;;7.78;4.90;;;;;;;;;;5071664;28;20075;-87
2022/04/22 13:29:43;;;;;;;9.55;4.50;;;18.80;79.40;;;;;;5085940;28;20051;-86
2022/04/22 13:32:28;;;;;;;8.32;4.75;;;;;;;;;;5070938;28;20063;-87
2022/04/22 13:35:13;;;;;;;9.48;4.95;;;;;;;;;;5071655;28;20499;-91
2022/04/22 13:37:57;;;;;;;7.20;4.47;;;18.50;80.50;;;;;;5071511;28;20043;-87
2022/04/22 13:40:42;;;;;;;8.40;4.70;;;;;;;;;;5073237;28;20043;-86
2022/04/22 13:43:30;;;;;;;13.10;6.18;;;;;;;;;;5089582;28;20498;-84
2022/04/22 13:52:22;;;;;;;10.30;4.60;;;;;;;;;;5075998;28;20083;-86
2022/04/22 13:55:07;;;;;;;9.73;4.50;;;18.40;82.50;;;;;;5075529;28;20035;-85
2022/04/22 13:57:51;;;;;;;7.85;4.10;;;18.80;82.60;;;;;;5089552;28;20102;-85
2022/04/22 14:00:35;;;;;;;9.98;4.75;;;18.60;81.00;;;;;;5074878;28;20623;-86
2022/04/22 14:03:20;;;;;;;7.78;5.05;;;19.20;83.70;;;;;;5074885;28;20062;-87
2022/04/22 14:06:04;;;;;;;14.27;5.30;;;19.10;82.90;;;;;;5074953;28;20036;-85
2022/04/22 14:08:49;;;;;;;7.70;4.65;;;19.10;83.10;;;;;;5074880;28;20047;-85
2022/04/22 14:11:33;;;;;;;10.98;4.97;;;18.80;85.90;;;;;;5074758;28;20062;-85
2022/04/22 14:14:20;;;;;;;7.43;4.72;;;;;;;;;;5089127;28;20496;-91
2022/04/22 14:17:06;;;;;;;6.97;5.53;;;18.50;82.00;;;;;;5076020;28;20047;-86
2022/04/22 14:19:50;;;;;;;9.38;5.13;;;;;;;;;;5074747;28;20047;-86
2022/04/22 14:22:35;;;;;;;11.65;5.80;;;;;;;;;;5074327;28;20439;-86
2022/04/22 14:25:19;;;;;;;10.02;4.95;;;;;;;;;;5088979;28;20047;-90
2022/04/22 14:28:04;;;;;;;9.98;5.45;;;;;;;;;;5074517;28;20427;-85
2022/04/22 14:30:49;;;;;;;10.63;5.10;;;;;;;;;;5074412;28;20128;-86
2022/04/22 14:33:33;;;;;;;9.10;4.70;;;18.10;85.00;;;;;;5074254;28;20056;-86
2022/04/22 14:36:18;;;;;;;10.10;4.65;;;;;;;;;;5075494;28;20186;-86
2022/04/22 14:39:03;;;;;;;7.75;4.10;;;18.70;82.80;;;;;;5075393;28;20089;-86
2022/04/22 14:41:48;;;;;;;6.60;4.25;;;;;;;;;;5075399;28;20116;-85
2022/04/22 14:44:32;;;;;;;9.85;4.20;;;18.70;81.80;;;;;;5073860;28;20086;-85
2022/04/22 14:47:18;;;;;;;8.32;3.88;;;;;;;;;;5075223;28;20034;-86
2022/04/22 14:50:03;;;;;;;9.05;3.90;;;;;;;;;;5088378;28;20082;-85
2022/04/22 14:52:48;;;;;;;7.60;3.75;;;18.50;80.40;;;;;;5074714;28;20048;-87
2022/04/22 14:55:36;;;;;;;8.15;3.60;;;18.40;66.60;;;;;;5059886;28;20147;-86
2022/04/22 14:58:20;;;;;;;14.05;4.00;;;18.40;86.50;;;;;;5074185;28;20124;-85
2022/04/22 15:01:05;;;;;;;5.68;3.28;;;;;;;;;;5088445;28;20039;-85
2022/04/22 15:03:49;;;;;;;5.97;2.92;;;18.50;80.40;;;;;;5075223;28;20102;-86
2022/04/22 15:06:35;;;;;;;6.65;3.40;;;18.20;80.20;;;;;;5059522;28;20039;-86
2022/04/22 15:09:19;;;;;;;6.78;3.50;;;18.40;80.70;;;;;;5074948;28;20078;-85
2022/04/22 15:12:04;;;;;;;8.50;3.50;;;;;;;;;;5073830;28;20039;-86
2022/04/22 15:14:52;;;;;;;9.13;3.30;;;;;;;;;;5074393;28;20093;-86
2022/04/22 15:26:54;;;;;;;8.88;3.58;;;18.70;63.60;;;;;;5074206;28;20039;-84
2022/04/22 15:29:40;;;;;;;10.98;3.15;;;18.70;79.30;;;;;;5073037;28;20075;-86
2022/04/22 15:32:25;;;;;;;12.90;4.70;;;;;;;;;;5087497;28;20055;-86
2022/04/22 15:35:09;;;;;;;10.48;4.32;;;18.50;80.20;;;;;;5073527;28;20086;-85
2022/04/22 15:37:54;;;;;;;5.65;3.80;;;;;;;;;;5073226;28;20090;-88
2022/04/22 15:40:38;;;;;;;7.40;4.07;;;;;;;;;;5072925;28;20039;-87
2022/04/22 15:43:23;;;;;;;7.93;3.72;;;18.20;84.10;;;;;;5074246;28;20083;-86
2022/04/22 15:46:08;;;;;;;7.90;3.50;;;;;;;;;;5073239;28;20048;-85
2022/04/22 15:48:53;;;;;;;5.63;3.22;;;18.10;64.90;;;;;;5072667;28;20048;-85
2022/04/22 15:51:38;;;;;;;5.78;2.80;;;;;;;;;;5072628;28;20070;-86
2022/04/22 15:54:22;;;;;;;8.90;3.50;;;;;;;;;;5073065;28;20044;-86
2022/04/22 15:57:08;;;;;;;5.95;3.67;;;18.30;65.50;;;;;;5072961;28;20492;-85
2022/04/22 15:59:52;;;;;;;6.03;3.40;;;;;;;;;;5072456;28;20047;-86
2022/04/22 16:02:37;;;;;;;10.25;3.50;;;;;;;;;;5085967;28;20043;-84
2022/04/22 16:05:22;;;;;;;9.23;3.35;;;;;;;;;;5072760;28;20043;-85
2022/04/22 16:08:08;;;;;;;6.85;3.08;;;17.90;86.80;;;;;;5072574;28;20393;-85
2022/04/22 16:10:53;;;;;;;4.82;3.08;;;;;;;;;;5086344;28;20125;-85
2022/04/22 16:16:42;;;;;;;8.77;3.13;;;;;;;;;;5073001;28;20081;-85
2022/04/22 16:19:27;;;;;;;7.57;3.53;;;;;;;;;;5072444;28;20106;-85
2022/04/22 16:22:13;;;;;;;8.70;2.83;;;;;;;;;;5072405;28;20099;-85
2022/04/22 16:24:57;;;;;;;7.72;3.47;;;;;;;;;;5086118;28;20622;-85
2022/04/22 16:27:42;;;;;;;8.65;3.22;;;;;;;;;;5086033;28;20086;-85
2022/04/22 16:30:28;;;;;;;8.90;3.85;;;18.40;84.60;;;;;;5073281;28;20126;-85
2022/04/22 16:33:13;;;;;;;9.65;3.40;;;;;;;;;;5073199;28;20583;-85
2022/04/22 16:35:57;;;;;;;9.20;3.42;;;;;;;;;;5072718;28;20074;-85
2022/04/22 16:38:42;;;;;;;6.80;3.60;;;;;;;;;;5071762;28;20086;-85
2022/04/22 16:41:27;;;;;;;8.75;3.65;;;;;;;;;;5073082;28;20075;-85
2022/04/22 16:44:11;;;;;;;7.32;3.47;;;;;;;;;;5072158;28;20035;-85
2022/04/22 16:46:56;;;;;;;8.43;3.50;;;;;;;;;;5072684;28;20031;-85
2022/04/22 16:49:40;;;;;;;6.10;3.40;;;17.40;86.90;;;;;;5071443;28;20140;-86
2022/04/22 16:52:25;;;;;;;8.57;3.53;;;17.40;73.00;;;;;;5057810;28;20079;-85
2022/04/22 16:55:10;;;;;;;6.05;3.85;;;;;;;;;;5072023;28;20060;-85
2022/04/22 16:57:55;;;;;;;11.23;3.67;;;;;;;;;;5071391;28;20491;-85
2022/04/22 17:00:40;;;;;;;6.53;3.38;;;;;;;;;;5071715;28;20058;-90
2022/04/22 17:03:26;;;;;;;6.35;3.63;;;;;;;;;;5071924;28;20043;-87
2022/04/22 17:06:11;;;;;;;7.30;3.00;;;;;;;;;;5072764;28;20059;-86
2022/04/22 17:08:57;;;;;;;8.52;2.97;;;;;;;;;;5085459;28;20052;-85
2022/04/22 17:11:41;;;;;;;6.15;3.40;;;;;;;;;;5072548;28;20453;-89
2022/04/22 17:23:36;;;;;;;4.90;2.58;;;;;;;;;;5083420;28;20094;-85
2022/04/22 17:26:24;;;;;;;6.10;2.92;;;16.90;69.40;;;;;;5071501;28;20519;-85
2022/04/22 17:29:09;;;;;;;7.60;3.08;;;;;;;;;;5071440;28;20056;-87